createdAt,value
2022-10-17T00:00:15.950Z,4.15
2022-10-17T00:03:19.582Z,3.58
2022-10-17T00:06:23.237Z,4.18
2022-10-17T00:09:26.932Z,4.05
2022-10-17T00:12:30.537Z,3.97
2022-10-17T00:15:36.089Z,4.40
2022-10-17T00:18:39.790Z,4.00
2022-10-17T00:21:43.397Z,4.20
2022-10-17T00:24:47.005Z,4.35
2022-10-17T00:27:50.601Z,4.93
2022-10-17T00:30:59.739Z,4.45
2022-10-17T00:34:03.475Z,5.00
2022-10-17T00:37:07.073Z,4.55
2022-10-17T00:40:12.162Z,4.38
2022-10-17T00:43:18.874Z,4.97
2022-10-17T00:46:26.165Z,5.70
2022-10-17T00:49:34.029Z,5.40
2022-10-17T00:52:38.142Z,5.65
2022-10-17T00:55:49.703Z,5.90
2022-10-17T00:58:53.634Z,5.25
2022-10-17T01:05:06.550Z,5.50
2022-10-17T01:08:12.557Z,5.95
2022-10-17T01:11:29.966Z,5.47
2022-10-17T01:14:42.898Z,6.25
2022-10-17T01:18:02.290Z,5.45
2022-10-17T01:21:31.652Z,5.55
2022-10-17T01:24:57.274Z,5.53
2022-10-17T01:28:18.887Z,6.10
2022-10-17T01:31:30.147Z,5.88
2022-10-17T01:34:37.434Z,5.85
2022-10-17T01:37:48.231Z,7.05
2022-10-17T01:40:57.695Z,6.88
2022-10-17T01:44:06.434Z,5.95
2022-10-17T01:47:17.054Z,6.75
2022-10-17T01:50:24.813Z,6.30
2022-10-17T01:53:34.607Z,6.20
2022-10-17T01:56:41.504Z,6.93
2022-10-17T01:59:50.030Z,6.38
2022-10-17T02:03:00.133Z,6.57
2022-10-17T02:06:04.217Z,7.30
2022-10-17T02:09:22.931Z,8.90
2022-10-17T02:12:44.074Z,7.25
2022-10-17T02:16:08.426Z,7.28
2022-10-17T02:19:38.230Z,7.65
2022-10-17T02:22:48.954Z,6.82
2022-10-17T02:25:59.411Z,7.00
2022-10-17T02:29:08.580Z,7.25
2022-10-17T02:32:16.665Z,7.10
2022-10-17T02:35:23.781Z,7.20
2022-10-17T02:38:29.133Z,7.75
2022-10-17T02:41:34.355Z,7.65
2022-10-17T02:44:41.681Z,7.68
2022-10-17T02:47:52.710Z,7.57
2022-10-17T02:51:05.158Z,8.45
2022-10-17T02:54:14.669Z,8.13
2022-10-17T02:57:23.542Z,8.38
2022-10-17T03:00:28.183Z,8.27
2022-10-17T03:03:34.338Z,8.35
2022-10-17T03:06:41.333Z,7.57
2022-10-17T03:09:45.046Z,6.68
2022-10-17T03:15:52.545Z,7.00
2022-10-17T03:18:56.418Z,7.93
2022-10-17T03:22:01.949Z,8.20
2022-10-17T03:25:07.882Z,7.82
2022-10-17T03:28:13.579Z,7.97
2022-10-17T03:31:18.753Z,9.00
2022-10-17T03:34:23.749Z,7.43
2022-10-17T03:37:29.810Z,7.80
2022-10-17T03:40:33.774Z,7.65
2022-10-17T03:46:41.314Z,7.43
2022-10-17T03:49:45.084Z,7.90
2022-10-17T03:52:51.204Z,7.32
2022-10-17T03:55:55.262Z,7.68
2022-10-17T03:58:59.990Z,7.82
2022-10-17T04:02:04.851Z,8.27
2022-10-17T04:05:09.751Z,7.65
2022-10-17T04:08:15.274Z,7.97
2022-10-17T04:14:51.742Z,8.82
2022-10-17T04:17:55.554Z,7.72
2022-10-17T04:20:59.489Z,7.68
2022-10-17T04:24:05.275Z,7.88
2022-10-17T04:27:35.364Z,9.07
2022-10-17T04:30:42.269Z,7.93
2022-10-17T04:33:50.706Z,9.10
2022-10-17T04:36:54.342Z,9.05
2022-10-17T04:40:00.418Z,9.02
2022-10-17T04:43:07.532Z,9.18
2022-10-17T04:46:15.863Z,9.48
2022-10-17T04:49:21.268Z,9.27
2022-10-17T04:52:29.476Z,9.07
2022-10-17T04:55:39.817Z,8.30
2022-10-17T04:58:45.313Z,9.15
2022-10-17T05:01:50.551Z,8.38
2022-10-17T05:04:55.195Z,8.88
2022-10-17T05:11:18.283Z,8.10
2022-10-17T05:14:21.921Z,9.20
2022-10-17T05:20:29.487Z,7.88
2022-10-17T05:23:33.269Z,8.07
2022-10-17T05:26:38.930Z,8.98
2022-10-17T05:29:42.598Z,7.78
2022-10-17T05:32:55.782Z,8.00
2022-10-17T05:35:59.927Z,9.48
2022-10-17T05:39:03.593Z,9.18
2022-10-17T05:42:11.166Z,8.95
2022-10-17T05:45:15.237Z,8.85
2022-10-17T05:48:19.193Z,8.70
2022-10-17T05:51:22.849Z,8.85
2022-10-17T05:54:27.028Z,8.50
2022-10-17T05:57:32.655Z,8.13
2022-10-17T06:00:37.410Z,7.43
2022-10-17T06:03:41.895Z,8.45
2022-10-17T06:06:46.748Z,8.68
2022-10-17T06:09:50.562Z,8.95
2022-10-17T06:15:59.807Z,8.27
2022-10-17T06:19:03.472Z,8.57
2022-10-17T06:22:07.792Z,8.20
2022-10-17T06:25:12.713Z,9.07
2022-10-17T06:31:22.936Z,8.05
2022-10-17T06:34:26.613Z,8.63
2022-10-17T06:37:36.295Z,7.53
2022-10-17T06:40:43.333Z,8.38
2022-10-17T06:43:49.249Z,8.48
2022-10-17T06:47:22.817Z,9.10
2022-10-17T06:50:28.670Z,8.02
2022-10-17T06:53:55.249Z,8.27
2022-10-17T06:57:06.077Z,8.40
2022-10-17T07:00:34.583Z,8.63
2022-10-17T07:03:39.617Z,8.07
2022-10-17T07:06:43.286Z,7.85
2022-10-17T07:09:53.347Z,7.97
2022-10-17T07:12:57.593Z,7.00
2022-10-17T07:16:03.195Z,7.10
2022-10-17T07:19:08.879Z,8.30
2022-10-17T07:22:15.066Z,7.68
2022-10-17T07:25:24.279Z,7.35
2022-10-17T07:28:36.525Z,7.45
2022-10-17T07:31:51.328Z,8.60
2022-10-17T07:34:54.945Z,7.25
2022-10-17T07:37:58.840Z,7.38
2022-10-17T07:41:06.559Z,6.78
2022-10-17T07:44:10.945Z,6.53
2022-10-17T07:47:23.509Z,7.05
2022-10-17T07:50:28.711Z,7.22
2022-10-17T07:53:32.398Z,6.38
2022-10-17T07:56:36.034Z,6.70
2022-10-17T07:59:40.084Z,6.32
2022-10-17T08:02:45.601Z,6.45
2022-10-17T08:05:49.215Z,6.30
2022-10-17T08:08:52.826Z,6.85
2022-10-17T08:11:56.550Z,6.05
2022-10-17T08:15:00.190Z,5.85
2022-10-17T08:18:05.812Z,6.85
2022-10-17T08:21:10.734Z,6.38
2022-10-17T08:24:14.355Z,5.90
2022-10-17T08:27:23.295Z,7.03
2022-10-17T08:30:29.946Z,6.13
2022-10-17T08:33:35.994Z,5.55
2022-10-17T08:36:39.630Z,6.32
2022-10-17T08:39:43.962Z,6.15
2022-10-17T08:43:08.742Z,5.22
2022-10-17T08:46:13.173Z,5.13
2022-10-17T08:49:33.269Z,4.90
2022-10-17T08:52:42.132Z,5.60
2022-10-17T08:55:48.503Z,5.05
2022-10-17T08:58:52.247Z,5.05
2022-10-17T09:02:04.189Z,4.78
2022-10-17T09:05:32.342Z,4.97
2022-10-17T09:08:45.666Z,5.15
2022-10-17T09:12:04.000Z,5.20
2022-10-17T09:15:39.932Z,5.35
2022-10-17T09:18:47.239Z,4.50
2022-10-17T09:21:55.123Z,5.32
2022-10-17T09:25:02.702Z,4.95
2022-10-17T09:28:17.547Z,5.00
2022-10-17T09:31:24.284Z,5.15
2022-10-17T09:34:29.885Z,5.35
2022-10-17T09:37:35.513Z,5.38
2022-10-17T09:40:39.199Z,5.00
2022-10-17T09:43:42.865Z,5.32
2022-10-17T09:46:58.271Z,5.97
2022-10-17T09:50:03.469Z,5.70
2022-10-17T09:53:15.112Z,5.40
2022-10-17T09:56:20.932Z,4.10
2022-10-17T09:59:33.402Z,4.70
2022-10-17T10:02:40.215Z,5.22
2022-10-17T10:05:59.079Z,4.53
2022-10-17T10:09:06.691Z,4.72
2022-10-17T10:12:21.154Z,4.90
2022-10-17T10:15:40.626Z,4.55
2022-10-17T10:18:46.446Z,4.90
2022-10-17T10:21:58.212Z,4.85
2022-10-17T10:25:18.372Z,5.05
2022-10-17T10:28:24.812Z,4.57
2022-10-17T10:31:32.660Z,5.03
2022-10-17T10:34:38.610Z,4.70
2022-10-17T10:37:45.113Z,5.55
2022-10-17T10:40:53.422Z,4.28
2022-10-17T10:43:57.673Z,7.28
2022-10-17T10:47:16.936Z,5.82
2022-10-17T10:50:28.119Z,5.45
2022-10-17T10:53:39.616Z,5.32
2022-10-17T10:56:51.122Z,4.10
2022-10-17T11:00:01.702Z,4.50
2022-10-17T11:03:12.943Z,9.25
2022-10-17T11:06:23.873Z,5.15
2022-10-17T11:09:37.665Z,4.80
2022-10-17T11:12:46.541Z,5.10
2022-10-17T11:15:59.023Z,5.22
2022-10-17T11:19:13.124Z,5.25
2022-10-17T11:22:18.173Z,4.70
2022-10-17T11:25:33.401Z,5.45
2022-10-17T11:28:39.022Z,5.13
2022-10-17T11:31:47.443Z,5.20
2022-10-17T11:34:54.703Z,4.70
2022-10-17T11:38:08.871Z,5.13
2022-10-17T11:44:26.762Z,4.93
2022-10-17T11:47:39.265Z,5.55
2022-10-17T11:54:15.554Z,6.60
2022-10-17T11:57:36.902Z,5.75
2022-10-17T12:00:53.871Z,5.75
2022-10-17T12:04:19.652Z,5.70
2022-10-17T12:07:31.661Z,5.90
2022-10-17T12:10:44.344Z,5.63
2022-10-17T12:13:54.026Z,6.10
2022-10-17T12:16:59.562Z,6.28
2022-10-17T12:20:25.654Z,6.43
2022-10-17T12:23:30.257Z,6.00
2022-10-17T12:26:34.486Z,6.53
2022-10-17T12:29:38.310Z,6.47
2022-10-17T12:33:06.679Z,7.00
2022-10-17T12:36:43.654Z,6.13
2022-10-17T12:39:47.268Z,6.82
2022-10-17T12:42:51.862Z,6.80
2022-10-17T12:45:56.337Z,6.53
2022-10-17T12:49:23.987Z,6.75
2022-10-17T12:52:49.352Z,6.15
2022-10-17T12:56:01.194Z,5.68
2022-10-17T12:59:11.511Z,6.97
2022-10-17T13:02:20.610Z,6.40
2022-10-17T13:05:29.919Z,6.45
2022-10-17T13:08:37.359Z,6.25
2022-10-17T13:11:44.538Z,6.35
2022-10-17T13:14:49.789Z,7.55
2022-10-17T13:18:00.586Z,6.90
2022-10-17T13:21:07.198Z,6.80
2022-10-17T13:24:22.651Z,6.63
2022-10-17T13:27:31.882Z,6.40
2022-10-17T13:30:37.488Z,7.05
2022-10-17T13:33:42.590Z,6.82
2022-10-17T13:36:49.119Z,7.05
2022-10-17T13:39:55.539Z,7.15
2022-10-17T13:43:03.566Z,7.10
2022-10-17T13:46:32.605Z,6.32
2022-10-17T13:49:35.357Z,7.35
2022-10-17T13:52:39.068Z,6.70
2022-10-17T13:56:09.438Z,8.18
2022-10-17T13:59:24.742Z,6.20
2022-10-17T14:02:30.250Z,6.55
2022-10-17T14:05:35.466Z,6.05
2022-10-17T14:08:40.579Z,6.20
2022-10-17T14:11:46.474Z,6.90
2022-10-17T14:15:11.295Z,6.70
2022-10-17T14:18:21.019Z,6.13
2022-10-17T14:21:43.703Z,7.20
2022-10-17T14:24:48.433Z,6.75
2022-10-17T14:31:20.990Z,5.93
2022-10-17T14:34:32.567Z,6.45
2022-10-17T14:37:43.140Z,6.25
2022-10-17T14:40:51.815Z,7.10
2022-10-17T14:43:58.556Z,6.63
2022-10-17T14:47:30.798Z,6.75
2022-10-17T14:50:31.219Z,7.25
2022-10-17T14:53:35.149Z,6.90
2022-10-17T14:56:43.579Z,6.80
2022-10-17T14:59:55.707Z,6.63
2022-10-17T15:03:01.776Z,6.18
2022-10-17T15:06:18.971Z,5.93
2022-10-17T15:09:23.237Z,6.45
2022-10-17T15:12:27.776Z,6.70
2022-10-17T15:15:33.027Z,6.60
2022-10-17T15:18:38.553Z,7.03
2022-10-17T15:21:46.906Z,6.50
2022-10-17T15:24:51.196Z,6.75
2022-10-17T15:27:55.317Z,7.10
2022-10-17T15:30:58.959Z,6.70
2022-10-17T15:34:04.510Z,6.65
2022-10-17T15:37:15.769Z,5.82
2022-10-17T15:40:22.589Z,4.72
2022-10-17T15:43:28.618Z,4.85
2022-10-17T15:46:35.846Z,4.40
2022-10-17T15:49:41.397Z,5.05
2022-10-17T15:52:46.439Z,5.00
2022-10-17T15:55:50.520Z,4.57
2022-10-17T15:58:54.791Z,4.47
2022-10-17T16:01:58.564Z,4.93
2022-10-17T16:05:04.170Z,5.15
2022-10-17T16:08:07.782Z,5.03
2022-10-17T16:11:18.108Z,5.82
2022-10-17T16:14:21.879Z,6.38
2022-10-17T16:17:25.490Z,6.30
2022-10-17T16:20:31.417Z,7.03
2022-10-17T16:23:35.151Z,6.82
2022-10-17T16:26:38.837Z,6.85
2022-10-17T16:29:42.597Z,6.70
2022-10-17T16:32:46.369Z,10.00
2022-10-17T16:35:52.393Z,8.02
2022-10-17T16:38:56.135Z,7.78
2022-10-17T16:41:59.827Z,6.90
2022-10-17T16:45:03.577Z,7.47
2022-10-17T16:48:07.531Z,7.13
2022-10-17T16:54:17.061Z,6.68
2022-10-17T16:57:20.693Z,6.95
2022-10-17T17:00:24.406Z,7.35
2022-10-17T17:03:28.112Z,6.90
2022-10-17T17:06:33.815Z,6.88
2022-10-17T17:09:37.446Z,7.53
2022-10-17T17:12:41.202Z,6.57
2022-10-17T17:19:12.639Z,7.70
2022-10-17T17:22:18.187Z,7.47
2022-10-17T17:25:21.843Z,8.65
2022-10-17T17:28:25.551Z,7.90
2022-10-17T17:31:31.124Z,8.60
2022-10-17T17:34:37.788Z,8.38
2022-10-17T17:37:43.374Z,8.35
2022-10-17T17:40:50.699Z,8.48
2022-10-17T17:43:55.517Z,8.88
2022-10-17T17:46:59.141Z,8.82
2022-10-17T17:50:03.018Z,8.73
2022-10-17T17:56:15.742Z,10.40
2022-10-17T17:59:19.404Z,10.65
2022-10-17T18:02:22.982Z,10.07
2022-10-17T18:05:26.609Z,11.25
2022-10-17T18:08:32.205Z,11.10
2022-10-17T18:11:36.662Z,11.13
2022-10-17T18:14:40.394Z,11.30
2022-10-17T18:17:44.052Z,11.93
2022-10-17T18:20:47.642Z,11.40
2022-10-17T18:23:53.263Z,11.35
2022-10-17T18:26:59.207Z,14.15
2022-10-17T18:30:03.014Z,14.73
2022-10-17T18:33:06.608Z,13.60
2022-10-17T18:36:12.990Z,13.73
2022-10-17T18:39:18.538Z,13.40
2022-10-17T18:42:22.247Z,17.10
2022-10-17T18:45:25.859Z,14.95
2022-10-17T18:48:29.475Z,14.30
2022-10-17T18:51:33.087Z,14.70
2022-10-17T18:54:38.738Z,13.63
2022-10-17T18:57:42.366Z,15.70
2022-10-17T19:00:46.090Z,15.07
2022-10-17T19:03:51.214Z,15.65
2022-10-17T19:06:54.932Z,14.57
2022-10-17T19:10:00.489Z,15.10
2022-10-17T19:13:04.137Z,15.20
2022-10-17T19:16:09.005Z,16.63
2022-10-17T19:19:15.150Z,16.33
2022-10-17T19:22:18.773Z,17.20
2022-10-17T19:25:24.417Z,16.80
2022-10-17T19:28:28.081Z,16.20
2022-10-17T19:31:33.226Z,16.92
2022-10-17T19:34:37.231Z,16.67
2022-10-17T19:40:46.120Z,16.17
2022-10-17T19:43:49.946Z,18.55
2022-10-17T19:46:53.836Z,18.55
2022-10-17T19:49:57.480Z,17.42
2022-10-17T19:53:01.093Z,17.65
2022-10-17T19:56:08.383Z,16.25
2022-10-17T19:59:14.058Z,17.70
2022-10-17T20:02:17.809Z,18.17
2022-10-17T20:05:23.710Z,18.33
2022-10-17T20:08:29.656Z,18.40
2022-10-17T20:11:35.221Z,19.23
2022-10-17T20:14:41.140Z,19.25
2022-10-17T20:17:44.929Z,19.25
2022-10-17T20:20:48.557Z,19.60
2022-10-17T20:23:52.258Z,18.15
2022-10-17T20:26:57.838Z,17.88
2022-10-17T20:30:01.926Z,21.63
2022-10-17T20:33:05.773Z,20.42
2022-10-17T20:36:10.874Z,19.60
2022-10-17T20:39:16.227Z,19.42
2022-10-17T20:42:22.526Z,19.25
2022-10-17T20:45:37.619Z,19.30
2022-10-17T20:48:53.131Z,18.10
2022-10-17T20:51:56.751Z,18.75
2022-10-17T20:55:00.379Z,19.13
2022-10-17T20:58:05.971Z,18.83
2022-10-17T21:01:11.263Z,17.83
2022-10-17T21:04:44.018Z,19.27
2022-10-17T21:07:39.028Z,17.92
2022-10-17T21:10:42.637Z,17.90
2022-10-17T21:13:49.485Z,16.50
2022-10-17T21:16:53.513Z,17.42
2022-10-17T21:23:01.039Z,19.83
2022-10-17T21:26:06.590Z,20.52
2022-10-17T21:29:13.982Z,20.00
2022-10-17T21:32:31.915Z,19.60
2022-10-17T21:35:41.178Z,20.43
2022-10-17T21:38:45.713Z,19.25
2022-10-17T21:41:49.362Z,18.40
2022-10-17T21:44:54.920Z,18.77
2022-10-17T21:48:12.571Z,18.98
2022-10-17T21:51:18.531Z,17.92
2022-10-17T21:54:24.297Z,18.63
2022-10-17T21:57:28.952Z,18.50
2022-10-17T22:00:34.490Z,18.75
2022-10-17T22:03:42.715Z,18.92
2022-10-17T22:06:52.614Z,17.98
2022-10-17T22:09:56.210Z,17.90
2022-10-17T22:12:59.822Z,17.50
2022-10-17T22:16:07.862Z,17.63
2022-10-17T22:19:14.282Z,19.13
2022-10-17T22:22:17.932Z,18.35
2022-10-17T22:25:21.634Z,19.17
2022-10-17T22:28:26.198Z,19.98
2022-10-17T22:31:31.915Z,19.73
2022-10-17T22:34:35.570Z,19.02
2022-10-17T22:37:39.239Z,18.92
2022-10-17T22:40:45.230Z,20.05
2022-10-17T22:43:48.862Z,19.38
2022-10-17T22:46:54.366Z,18.95
2022-10-17T22:49:58.047Z,18.85
2022-10-17T22:53:02.298Z,17.75
2022-10-17T22:56:08.517Z,17.92
2022-10-17T22:59:12.134Z,17.77
2022-10-17T23:02:17.696Z,17.95
2022-10-17T23:05:21.282Z,18.77
2022-10-17T23:08:25.325Z,19.42
2022-10-17T23:11:29.012Z,18.52
2022-10-17T23:14:32.735Z,20.48
2022-10-17T23:17:38.230Z,20.05
2022-10-17T23:20:41.967Z,19.75
2022-10-17T23:23:45.601Z,19.70
2022-10-17T23:26:49.224Z,20.23
2022-10-17T23:29:52.837Z,19.92
2022-10-17T23:32:58.378Z,19.42
2022-10-17T23:36:05.561Z,20.33
2022-10-17T23:39:09.215Z,20.80
2022-10-17T23:42:12.837Z,18.95
2022-10-17T23:45:16.651Z,19.98
2022-10-17T23:48:22.259Z,18.95
2022-10-17T23:51:25.894Z,20.33
2022-10-17T23:54:29.577Z,19.52
2022-10-17T23:57:33.663Z,19.48
